CheckWX is a tool to help pilots better visualize weather data.  It is not intended as a substitute for an official pre-flight weather briefing.

06:22:46 UTC

UIII METAR
Irkutsk Airport
Irkutsk, Russian Federation
Current

23 mins ago

UIII 020600Z 29008MPS 270V330 9999 SCT050CB 14/02 Q1008 R12/CLRD60 NOSIG RMK QFE714/0952
Observed
Jun-2 @ 06:00 UTC
Wind
  • 290° at 16 KTS
Visibility
10,000+ meters
Flight Rules
VFR
Cloud Levels
  • Scattered at 5,000' AGL
Temperature
14°C / 57°F
Dewpoint
C / 36°F
Humidity
44%
Altimeter
29.76" Hg
Pressure
1007.92 hPa
Previous

23 mins ago

UIII 020600Z 29008MPS 270V330 9999 SCT050CB 14/02 Q1008 R12/60D NOSIG RMK QFE714/0952
Observed
Jun-2 @ 06:00 UTC
Wind
  • 290° at 16 KTS
Visibility
10,000+ meters
Flight Rules
VFR
Cloud Levels
  • Scattered at 5,000' AGL
Temperature
14°C / 57°F
Dewpoint
C / 36°F
Humidity
44%
Altimeter
29.76" Hg
Pressure
1007.92 hPa
Previous

53 mins ago

UIII 020530Z 31007G14MPS 270V330 9999 SCT050CB 14/04 Q1008 R30/CLRD60 NOSIG RMK QFE712/0949
Observed
Jun-2 @ 05:30 UTC
Wind
  • 310° at 14 KTS
  • Gusting to 27 KTS
Visibility
10,000+ meters
Flight Rules
VFR
Cloud Levels
  • Scattered at 5,000' AGL
Temperature
14°C / 57°F
Dewpoint
C / 39°F
Humidity
51%
Altimeter
29.76" Hg
Pressure
1007.92 hPa